»·PEaware :: JUS326 KOLM-KPSC

JUS326 :: KOLM-KPSC

FLIGHT INFORMATION

Flight Status: Arrived
Operator:
USA Jet
More flights by this operator :: More flights under this callsign
Pilot: Erik S. (3779)
Aircraft: BOEING 737-300
(B733)
More flights by this aircraft type
Origin: KOLM Olympia
United States
Destination: KPSC Tri-Cities
United States
More flights between these airports :: More routes between these airports
Route: + / ELN335011 PSC
File this flight plan on PilotEdge
Remarks:
Altitude:
(Current/Filed)
21,000ft
Speed:
(Current/Filed)
400kts
Departed: 16-Dec-17 09:48 AM
Arrived: 16-Dec-17 10:28 AM
Distance/Time
Traveled:
162nm/0:39
Distance/Time
To Go:
Arrived

Flight Plot

Page will automatically refresh every two minutes.

Flight plan parsing failed; only flown route is shown


Map Options




Map Legend


Flown Route
Filed Route
Departure Airport
Arrival Airport
Navaid (VOR, NDB)
Fix

Horizontal Profiles

Position Reports

Time Latitude Longitude Heading Altitude Ground
Speed
16-Dec-17 09:40 46.972681 -122.895981 247 215ft 0kts
16-Dec-17 09:41 46.972681 -122.895981 247 215ft 0kts
16-Dec-17 09:42 46.972681 -122.895981 247 215ft 0kts
16-Dec-17 09:43 46.972681 -122.895981 247 215ft 0kts
16-Dec-17 09:44 46.972681 -122.895981 247 215ft 0kts
16-Dec-17 09:45 46.972681 -122.895981 247 215ft 0kts
16-Dec-17 09:46 46.972681 -122.895981 247 215ft 0kts
16-Dec-17 09:47 46.972681 -122.895981 247 215ft 0kts
16-Dec-17 09:48 46.972681 -122.895981 247 215ft 0kts
16-Dec-17 09:49 46.972681 -122.895981 247 215ft 0kts
16-Dec-17 09:50 46.972681 -122.895981 247 215ft 0kts
16-Dec-17 09:51 46.972681 -122.895981 247 215ft 0kts
16-Dec-17 09:52 46.972607 -122.896464 283 215ft 10kts
16-Dec-17 09:53 46.975914 -122.900920 281 215ft 8kts
16-Dec-17 09:54 46.967397 -122.905156 191 217ft 143kts
16-Dec-17 09:55 46.940627 -122.871373 72 1865ft 188kts
16-Dec-17 09:56 46.953837 -122.795431 75 1986ft 202kts
16-Dec-17 09:57 46.967883 -122.714124 75 1948ft 213kts
16-Dec-17 09:58 46.984881 -122.618576 75 2652ft 262kts
16-Dec-17 09:59 47.001254 -122.515849 75 7034ft 269kts
16-Dec-17 10:00 47.016150 -122.404881 75 10353ft 301kts
16-Dec-17 10:01 47.033381 -122.272221 75 12819ft 349kts
16-Dec-17 10:02 47.050277 -122.128413 75 15768ft 368kts
16-Dec-17 10:03 47.065598 -121.976659 75 18260ft 389kts
16-Dec-17 10:04 47.079904 -121.818152 75 20804ft 397kts
16-Dec-17 10:05 47.094150 -121.651574 75 21333ft 436kts
16-Dec-17 10:06 47.110014 -121.473566 75 21397ft 439kts
16-Dec-17 10:07 47.125613 -121.296086 75 21330ft 437kts
16-Dec-17 10:08 47.141116 -121.118418 75 21298ft 440kts
16-Dec-17 10:09 47.156537 -120.941589 75 21275ft 430kts
16-Dec-17 10:10 47.172506 -120.767997 75 21267ft 430kts
16-Dec-17 10:11 47.188781 -120.594084 75 21266ft 430kts
16-Dec-17 10:12 47.204859 -120.420161 75 21271ft 430kts
16-Dec-17 10:13 47.181367 -120.248443 120 21299ft 463kts
16-Dec-17 10:14 47.085160 -120.120353 136 21290ft 469kts
16-Dec-17 10:15 46.995399 -120.007130 136 21291ft 470kts
16-Dec-17 10:16 46.895794 -119.882781 136 21262ft 474kts
16-Dec-17 10:17 46.796097 -119.757882 137 20036ft 468kts
16-Dec-17 10:18 46.704578 -119.644913 138 16987ft 438kts
16-Dec-17 10:19 46.616159 -119.536336 138 13972ft 409kts
16-Dec-17 10:20 46.532553 -119.434223 139 11002ft 382kts
16-Dec-17 10:21 46.455562 -119.340588 138 9626ft 337kts
16-Dec-17 10:22 46.391206 -119.262852 138 8376ft 292kts
16-Dec-17 10:23 46.330958 -119.190004 138 6075ft 277kts
16-Dec-17 10:24 46.282760 -119.131709 137 6261ft 194kts
16-Dec-17 10:25 46.292386 -119.071446 39 6201ft 172kts
16-Dec-17 10:26 46.327047 -119.026019 41 4128ft 164kts
16-Dec-17 10:27 46.360984 -118.981812 25 2920ft 165kts
16-Dec-17 10:28 46.402493 -118.997420 27 2878ft 166kts
16-Dec-17 10:29 46.389863 -118.950889 185 2864ft 169kts
16-Dec-17 10:30 46.353231 -118.986551 228 2906ft 144kts
16-Dec-17 10:31 46.327490 -119.027575 225 2072ft 135kts
16-Dec-17 10:32 46.302126 -119.065173 225 1345ft 123kts
16-Dec-17 10:33 46.278666 -119.100108 226 720ft 120kts
16-Dec-17 10:34 46.259591 -119.127799 187 417ft 26kts
16-Dec-17 10:35 46.258688 -119.126740 133 417ft 0kts
16-Dec-17 10:36 46.258422 -119.126268 117 417ft 13kts
16-Dec-17 10:37 46.261946 -119.113268 67 417ft 43kts
16-Dec-17 10:38 46.263324 -119.105143 275 417ft 0kts

Navigation Log

Ident Type
Flight plan parsing failed, navigation log unavailable